sensor_id;sensor_type;location;lat;lon;timestamp;temperature;humidity
29093;DHT22;16167;48.768;14.984;2024-01-16T00:02:22;-1.10;86.70
29093;DHT22;16167;48.768;14.984;2024-01-16T00:04:51;-1.20;86.10
29093;DHT22;16167;48.768;14.984;2024-01-16T00:07:19;-1.10;86.50
29093;DHT22;16167;48.768;14.984;2024-01-16T00:09:49;-1.20;86.40
29093;DHT22;16167;48.768;14.984;2024-01-16T00:12:19;-1.10;86.80
29093;DHT22;16167;48.768;14.984;2024-01-16T00:14:47;-1.10;86.00
29093;DHT22;16167;48.768;14.984;2024-01-16T00:17:16;-1.10;84.70
29093;DHT22;16167;48.768;14.984;2024-01-16T00:19:44;-1.10;84.70
29093;DHT22;16167;48.768;14.984;2024-01-16T00:22:12;-1.10;87.30
29093;DHT22;16167;48.768;14.984;2024-01-16T00:24:40;-1.10;84.70
29093;DHT22;16167;48.768;14.984;2024-01-16T00:27:10;-1.10;85.40
29093;DHT22;16167;48.768;14.984;2024-01-16T00:29:38;-1.10;87.20
29093;DHT22;16167;48.768;14.984;2024-01-16T00:32:06;-1.10;85.80
29093;DHT22;16167;48.768;14.984;2024-01-16T00:34:35;-1.10;86.90
29093;DHT22;16167;48.768;14.984;2024-01-16T00:37:03;-1.10;87.30
29093;DHT22;16167;48.768;14.984;2024-01-16T00:39:32;-1.10;87.50
29093;DHT22;16167;48.768;14.984;2024-01-16T00:42:01;-1.20;87.70
29093;DHT22;16167;48.768;14.984;2024-01-16T00:44:31;-1.20;87.50
29093;DHT22;16167;48.768;14.984;2024-01-16T00:46:59;-1.20;86.40
29093;DHT22;16167;48.768;14.984;2024-01-16T00:49:28;-1.30;87.60
29093;DHT22;16167;48.768;14.984;2024-01-16T00:51:57;-1.30;87.50
29093;DHT22;16167;48.768;14.984;2024-01-16T00:54:25;-1.40;87.60
29093;DHT22;16167;48.768;14.984;2024-01-16T00:56:53;-1.30;86.70
29093;DHT22;16167;48.768;14.984;2024-01-16T00:59:26;-1.30;85.90
29093;DHT22;16167;48.768;14.984;2024-01-16T01:01:56;-1.30;85.20
29093;DHT22;16167;48.768;14.984;2024-01-16T01:04:24;-1.40;84.40
29093;DHT22;16167;48.768;14.984;2024-01-16T01:06:52;-1.40;84.50
29093;DHT22;16167;48.768;14.984;2024-01-16T01:09:20;-1.40;82.50
29093;DHT22;16167;48.768;14.984;2024-01-16T01:11:49;-1.40;83.80
29093;DHT22;16167;48.768;14.984;2024-01-16T01:14:17;-1.40;82.60
29093;DHT22;16167;48.768;14.984;2024-01-16T01:16:46;-1.50;82.90
29093;DHT22;16167;48.768;14.984;2024-01-16T01:19:15;-1.40;82.70
29093;DHT22;16167;48.768;14.984;2024-01-16T01:21:43;-1.40;82.80
29093;DHT22;16167;48.768;14.984;2024-01-16T01:24:12;-1.40;84.40
29093;DHT22;16167;48.768;14.984;2024-01-16T01:26:42;-1.40;86.80
29093;DHT22;16167;48.768;14.984;2024-01-16T01:29:11;-1.40;86.90
29093;DHT22;16167;48.768;14.984;2024-01-16T01:31:39;-1.40;86.60
29093;DHT22;16167;48.768;14.984;2024-01-16T01:34:07;-1.40;84.10
29093;DHT22;16167;48.768;14.984;2024-01-16T01:36:37;-1.40;83.40
29093;DHT22;16167;48.768;14.984;2024-01-16T01:39:05;-1.50;82.40
29093;DHT22;16167;48.768;14.984;2024-01-16T01:41:33;-1.50;84.00
29093;DHT22;16167;48.768;14.984;2024-01-16T01:44:01;-1.50;83.30
29093;DHT22;16167;48.768;14.984;2024-01-16T01:46:32;-1.50;84.00
29093;DHT22;16167;48.768;14.984;2024-01-16T01:49:01;-1.60;83.50
29093;DHT22;16167;48.768;14.984;2024-01-16T01:51:31;-1.60;84.10
29093;DHT22;16167;48.768;14.984;2024-01-16T01:54:00;-1.60;86.30
29093;DHT22;16167;48.768;14.984;2024-01-16T01:56:29;-1.70;87.30
29093;DHT22;16167;48.768;14.984;2024-01-16T01:58:57;-1.70;86.50
29093;DHT22;16167;48.768;14.984;2024-01-16T02:04:02;-1.70;85.30
29093;DHT22;16167;48.768;14.984;2024-01-16T02:06:31;-1.70;85.50
29093;DHT22;16167;48.768;14.984;2024-01-16T02:09:01;-1.70;86.20
29093;DHT22;16167;48.768;14.984;2024-01-16T02:11:34;-1.60;85.80
29093;DHT22;16167;48.768;14.984;2024-01-16T02:14:03;-1.50;85.30
29093;DHT22;16167;48.768;14.984;2024-01-16T02:16:36;-1.60;85.10
29093;DHT22;16167;48.768;14.984;2024-01-16T02:22:21;-1.60;85.20
29093;DHT22;16167;48.768;14.984;2024-01-16T02:24:54;-1.70;85.60
29093;DHT22;16167;48.768;14.984;2024-01-16T02:27:22;-1.70;85.70
29093;DHT22;16167;48.768;14.984;2024-01-16T02:29:50;-1.80;85.70
29093;DHT22;16167;48.768;14.984;2024-01-16T02:32:19;-1.80;86.40
29093;DHT22;16167;48.768;14.984;2024-01-16T02:34:47;-1.80;86.30
29093;DHT22;16167;48.768;14.984;2024-01-16T02:37:17;-1.70;84.50
29093;DHT22;16167;48.768;14.984;2024-01-16T02:39:45;-1.80;87.00
29093;DHT22;16167;48.768;14.984;2024-01-16T02:42:15;-1.80;88.40
29093;DHT22;16167;48.768;14.984;2024-01-16T02:44:43;-1.80;87.60
29093;DHT22;16167;48.768;14.984;2024-01-16T02:47:11;-1.70;87.40
29093;DHT22;16167;48.768;14.984;2024-01-16T02:49:39;-1.70;87.30
29093;DHT22;16167;48.768;14.984;2024-01-16T02:52:08;-1.70;87.30
29093;DHT22;16167;48.768;14.984;2024-01-16T02:54:36;-1.70;86.00
29093;DHT22;16167;48.768;14.984;2024-01-16T02:57:04;-1.70;86.30
29093;DHT22;16167;48.768;14.984;2024-01-16T02:59:34;-1.70;86.40
29093;DHT22;16167;48.768;14.984;2024-01-16T03:02:02;-1.70;86.60
29093;DHT22;16167;48.768;14.984;2024-01-16T03:04:31;-1.70;86.30
29093;DHT22;16167;48.768;14.984;2024-01-16T03:06:59;-1.70;86.30
29093;DHT22;16167;48.768;14.984;2024-01-16T03:09:27;-1.60;86.50
29093;DHT22;16167;48.768;14.984;2024-01-16T03:11:55;-1.60;85.50
29093;DHT22;16167;48.768;14.984;2024-01-16T03:14:24;-1.60;85.50
29093;DHT22;16167;48.768;14.984;2024-01-16T03:16:54;-1.60;85.60
29093;DHT22;16167;48.768;14.984;2024-01-16T03:19:22;-1.60;84.30
29093;DHT22;16167;48.768;14.984;2024-01-16T03:21:51;-1.60;81.40
29093;DHT22;16167;48.768;14.984;2024-01-16T03:24:19;-1.70;81.30
29093;DHT22;16167;48.768;14.984;2024-01-16T03:26:47;-1.60;81.10
29093;DHT22;16167;48.768;14.984;2024-01-16T03:29:16;-1.50;81.00
29093;DHT22;16167;48.768;14.984;2024-01-16T03:31:44;-1.50;81.90
29093;DHT22;16167;48.768;14.984;2024-01-16T03:34:13;-1.60;80.50
29093;DHT22;16167;48.768;14.984;2024-01-16T03:36:42;-1.60;81.00
29093;DHT22;16167;48.768;14.984;2024-01-16T03:39:10;-1.60;80.20
29093;DHT22;16167;48.768;14.984;2024-01-16T03:41:38;-1.50;81.30
29093;DHT22;16167;48.768;14.984;2024-01-16T03:44:07;-1.60;80.50
29093;DHT22;16167;48.768;14.984;2024-01-16T03:46:35;-1.50;81.00
29093;DHT22;16167;48.768;14.984;2024-01-16T03:49:03;-1.50;80.70
29093;DHT22;16167;48.768;14.984;2024-01-16T03:51:33;-1.50;80.30
29093;DHT22;16167;48.768;14.984;2024-01-16T03:54:01;-1.50;80.80
29093;DHT22;16167;48.768;14.984;2024-01-16T03:56:29;-1.50;81.20
29093;DHT22;16167;48.768;14.984;2024-01-16T03:58:58;-1.50;81.70
29093;DHT22;16167;48.768;14.984;2024-01-16T04:01:30;-1.50;81.20
29093;DHT22;16167;48.768;14.984;2024-01-16T04:03:59;-1.50;82.30
29093;DHT22;16167;48.768;14.984;2024-01-16T04:06:28;-1.60;81.50
29093;DHT22;16167;48.768;14.984;2024-01-16T04:08:59;-1.60;81.50
29093;DHT22;16167;48.768;14.984;2024-01-16T04:11:27;-1.50;81.60
29093;DHT22;16167;48.768;14.984;2024-01-16T04:13:56;-1.50;80.70
29093;DHT22;16167;48.768;14.984;2024-01-16T04:16:24;-1.50;82.00
29093;DHT22;16167;48.768;14.984;2024-01-16T04:18:52;-1.60;80.00
29093;DHT22;16167;48.768;14.984;2024-01-16T04:21:21;-1.60;81.80
29093;DHT22;16167;48.768;14.984;2024-01-16T04:23:49;-1.60;81.80
29093;DHT22;16167;48.768;14.984;2024-01-16T04:26:18;-1.60;81.40
29093;DHT22;16167;48.768;14.984;2024-01-16T04:28:47;-1.50;81.50
29093;DHT22;16167;48.768;14.984;2024-01-16T04:31:15;-1.60;81.30
29093;DHT22;16167;48.768;14.984;2024-01-16T04:33:46;-1.60;80.40
29093;DHT22;16167;48.768;14.984;2024-01-16T04:36:14;-1.60;80.60
29093;DHT22;16167;48.768;14.984;2024-01-16T04:38:42;-1.60;81.60
29093;DHT22;16167;48.768;14.984;2024-01-16T04:41:11;-1.50;81.40
29093;DHT22;16167;48.768;14.984;2024-01-16T04:43:40;-1.50;80.50
29093;DHT22;16167;48.768;14.984;2024-01-16T04:46:09;-1.50;79.20
29093;DHT22;16167;48.768;14.984;2024-01-16T04:48:37;-1.50;81.30
29093;DHT22;16167;48.768;14.984;2024-01-16T04:51:05;-1.50;81.60
29093;DHT22;16167;48.768;14.984;2024-01-16T04:53:34;-1.50;81.20
29093;DHT22;16167;48.768;14.984;2024-01-16T04:56:03;-1.50;81.40
29093;DHT22;16167;48.768;14.984;2024-01-16T04:58:32;-1.50;82.10
29093;DHT22;16167;48.768;14.984;2024-01-16T05:01:02;-1.50;80.50
29093;DHT22;16167;48.768;14.984;2024-01-16T05:03:30;-1.60;79.70
29093;DHT22;16167;48.768;14.984;2024-01-16T05:05:59;-1.50;79.30
29093;DHT22;16167;48.768;14.984;2024-01-16T05:08:27;-1.50;79.80
29093;DHT22;16167;48.768;14.984;2024-01-16T05:10:57;-1.50;80.50
29093;DHT22;16167;48.768;14.984;2024-01-16T05:13:26;-1.60;80.90
29093;DHT22;16167;48.768;14.984;2024-01-16T05:15:54;-1.50;79.50
29093;DHT22;16167;48.768;14.984;2024-01-16T05:18:24;-1.50;79.60
29093;DHT22;16167;48.768;14.984;2024-01-16T05:20:52;-1.50;79.40
29093;DHT22;16167;48.768;14.984;2024-01-16T05:23:24;-1.50;79.10
29093;DHT22;16167;48.768;14.984;2024-01-16T05:25:52;-1.50;79.80
29093;DHT22;16167;48.768;14.984;2024-01-16T05:28:21;-1.50;79.60
29093;DHT22;16167;48.768;14.984;2024-01-16T05:30:49;-1.60;80.00
29093;DHT22;16167;48.768;14.984;2024-01-16T05:33:17;-1.60;80.20
29093;DHT22;16167;48.768;14.984;2024-01-16T05:35:47;-1.60;80.20
29093;DHT22;16167;48.768;14.984;2024-01-16T05:38:15;-1.60;80.00
29093;DHT22;16167;48.768;14.984;2024-01-16T05:40:43;-1.70;79.70
29093;DHT22;16167;48.768;14.984;2024-01-16T05:43:12;-1.70;80.00
29093;DHT22;16167;48.768;14.984;2024-01-16T05:45:41;-1.70;79.50
29093;DHT22;16167;48.768;14.984;2024-01-16T05:48:09;-1.70;79.70
29093;DHT22;16167;48.768;14.984;2024-01-16T05:50:38;-1.70;79.30
29093;DHT22;16167;48.768;14.984;2024-01-16T05:53:08;-1.70;80.00
29093;DHT22;16167;48.768;14.984;2024-01-16T05:55:36;-1.70;80.40
29093;DHT22;16167;48.768;14.984;2024-01-16T05:58:04;-1.70;80.60
29093;DHT22;16167;48.768;14.984;2024-01-16T06:00:32;-1.70;80.50
29093;DHT22;16167;48.768;14.984;2024-01-16T06:03:01;-1.70;80.60
29093;DHT22;16167;48.768;14.984;2024-01-16T06:05:30;-1.70;81.40
29093;DHT22;16167;48.768;14.984;2024-01-16T06:07:58;-1.70;80.40
29093;DHT22;16167;48.768;14.984;2024-01-16T06:10:27;-1.70;83.30
29093;DHT22;16167;48.768;14.984;2024-01-16T06:12:56;-1.60;80.80
29093;DHT22;16167;48.768;14.984;2024-01-16T06:15:24;-1.70;80.50
29093;DHT22;16167;48.768;14.984;2024-01-16T06:17:52;-1.70;80.90
29093;DHT22;16167;48.768;14.984;2024-01-16T06:20:20;-1.70;82.40
29093;DHT22;16167;48.768;14.984;2024-01-16T06:22:51;-1.70;82.40
29093;DHT22;16167;48.768;14.984;2024-01-16T06:25:19;-1.70;82.80
29093;DHT22;16167;48.768;14.984;2024-01-16T06:27:48;-1.80;82.90
29093;DHT22;16167;48.768;14.984;2024-01-16T06:30:17;-1.70;83.60
29093;DHT22;16167;48.768;14.984;2024-01-16T06:32:45;-1.70;82.90
29093;DHT22;16167;48.768;14.984;2024-01-16T06:35:15;-1.70;83.00
29093;DHT22;16167;48.768;14.984;2024-01-16T06:37:43;-1.70;83.30
29093;DHT22;16167;48.768;14.984;2024-01-16T06:40:12;-1.80;83.40
29093;DHT22;16167;48.768;14.984;2024-01-16T06:42:40;-1.70;83.10
29093;DHT22;16167;48.768;14.984;2024-01-16T06:45:10;-1.70;83.70
29093;DHT22;16167;48.768;14.984;2024-01-16T06:47:39;-1.80;84.10
29093;DHT22;16167;48.768;14.984;2024-01-16T06:50:09;-1.80;84.00
29093;DHT22;16167;48.768;14.984;2024-01-16T06:52:37;-1.80;83.70
29093;DHT22;16167;48.768;14.984;2024-01-16T06:55:06;-1.70;83.40
29093;DHT22;16167;48.768;14.984;2024-01-16T06:57:34;-1.70;83.40
29093;DHT22;16167;48.768;14.984;2024-01-16T07:00:03;-1.70;83.30
29093;DHT22;16167;48.768;14.984;2024-01-16T07:02:35;-1.70;83.30
29093;DHT22;16167;48.768;14.984;2024-01-16T07:05:04;-1.70;82.60
29093;DHT22;16167;48.768;14.984;2024-01-16T07:07:32;-1.60;82.60
29093;DHT22;16167;48.768;14.984;2024-01-16T07:10:01;-1.60;81.30
29093;DHT22;16167;48.768;14.984;2024-01-16T07:12:29;-1.60;81.40
29093;DHT22;16167;48.768;14.984;2024-01-16T07:14:57;-1.60;81.60
29093;DHT22;16167;48.768;14.984;2024-01-16T07:17:25;-1.50;81.30
29093;DHT22;16167;48.768;14.984;2024-01-16T07:19:55;-1.50;82.00
29093;DHT22;16167;48.768;14.984;2024-01-16T07:22:25;-1.50;82.80
29093;DHT22;16167;48.768;14.984;2024-01-16T07:24:54;-1.50;83.30
29093;DHT22;16167;48.768;14.984;2024-01-16T07:27:22;-1.50;81.60
29093;DHT22;16167;48.768;14.984;2024-01-16T07:29:50;-1.50;82.70
29093;DHT22;16167;48.768;14.984;2024-01-16T07:32:18;-1.50;83.20
29093;DHT22;16167;48.768;14.984;2024-01-16T07:34:47;-1.50;83.20
29093;DHT22;16167;48.768;14.984;2024-01-16T07:37:16;-1.50;85.00
29093;DHT22;16167;48.768;14.984;2024-01-16T07:39:44;-1.50;84.70
29093;DHT22;16167;48.768;14.984;2024-01-16T07:42:13;-1.40;82.90
29093;DHT22;16167;48.768;14.984;2024-01-16T07:44:41;-1.40;84.90
29093;DHT22;16167;48.768;14.984;2024-01-16T07:47:09;-1.30;84.80
29093;DHT22;16167;48.768;14.984;2024-01-16T07:49:37;-1.40;82.80
29093;DHT22;16167;48.768;14.984;2024-01-16T07:52:06;-1.40;82.30
29093;DHT22;16167;48.768;14.984;2024-01-16T07:54:35;-1.30;82.50
29093;DHT22;16167;48.768;14.984;2024-01-16T07:57:04;-1.30;82.60
29093;DHT22;16167;48.768;14.984;2024-01-16T07:59:33;-1.30;82.20
29093;DHT22;16167;48.768;14.984;2024-01-16T08:02:01;-1.30;81.90
29093;DHT22;16167;48.768;14.984;2024-01-16T08:04:29;-1.20;80.80
29093;DHT22;16167;48.768;14.984;2024-01-16T08:06:58;-1.20;80.90
29093;DHT22;16167;48.768;14.984;2024-01-16T08:09:26;-1.20;80.40
29093;DHT22;16167;48.768;14.984;2024-01-16T08:11:56;-1.20;79.50
29093;DHT22;16167;48.768;14.984;2024-01-16T08:14:24;-1.10;78.30
29093;DHT22;16167;48.768;14.984;2024-01-16T08:16:52;-1.10;79.00
29093;DHT22;16167;48.768;14.984;2024-01-16T08:19:20;-1.00;79.20
29093;DHT22;16167;48.768;14.984;2024-01-16T08:21:49;-1.00;78.60
29093;DHT22;16167;48.768;14.984;2024-01-16T08:24:18;-1.00;77.10
29093;DHT22;16167;48.768;14.984;2024-01-16T08:26:46;-0.90;78.00
29093;DHT22;16167;48.768;14.984;2024-01-16T08:29:16;-0.90;78.10
29093;DHT22;16167;48.768;14.984;2024-01-16T08:31:44;-0.90;77.70
29093;DHT22;16167;48.768;14.984;2024-01-16T08:34:12;-0.80;77.50
29093;DHT22;16167;48.768;14.984;2024-01-16T08:36:41;-0.80;77.30
29093;DHT22;16167;48.768;14.984;2024-01-16T08:39:09;-0.80;78.10
29093;DHT22;16167;48.768;14.984;2024-01-16T08:41:37;-0.70;77.60
29093;DHT22;16167;48.768;14.984;2024-01-16T08:44:06;-0.60;76.60
29093;DHT22;16167;48.768;14.984;2024-01-16T08:46:35;-0.70;76.20
29093;DHT22;16167;48.768;14.984;2024-01-16T08:49:03;-0.60;76.60
29093;DHT22;16167;48.768;14.984;2024-01-16T08:51:32;-0.60;75.70
29093;DHT22;16167;48.768;14.984;2024-01-16T08:54:00;-0.50;74.40
29093;DHT22;16167;48.768;14.984;2024-01-16T08:56:28;-0.40;75.40
29093;DHT22;16167;48.768;14.984;2024-01-16T08:58:56;-0.60;73.90
29093;DHT22;16167;48.768;14.984;2024-01-16T09:01:25;-0.50;74.50
29093;DHT22;16167;48.768;14.984;2024-01-16T09:03:54;-0.40;73.90
29093;DHT22;16167;48.768;14.984;2024-01-16T09:06:23;-0.30;72.90
29093;DHT22;16167;48.768;14.984;2024-01-16T09:08:51;-0.20;73.60
29093;DHT22;16167;48.768;14.984;2024-01-16T09:11:19;-0.10;72.60
29093;DHT22;16167;48.768;14.984;2024-01-16T09:13:47;0.00;72.90
29093;DHT22;16167;48.768;14.984;2024-01-16T09:16:16;-0.10;71.60
29093;DHT22;16167;48.768;14.984;2024-01-16T09:18:44;-0.10;71.80
29093;DHT22;16167;48.768;14.984;2024-01-16T09:21:14;0.00;71.60
29093;DHT22;16167;48.768;14.984;2024-01-16T09:23:43;0.20;70.90
29093;DHT22;16167;48.768;14.984;2024-01-16T09:26:11;0.20;70.80
29093;DHT22;16167;48.768;14.984;2024-01-16T09:28:39;0.20;69.80
29093;DHT22;16167;48.768;14.984;2024-01-16T09:31:07;0.30;69.30
29093;DHT22;16167;48.768;14.984;2024-01-16T09:33:36;0.40;69.40
29093;DHT22;16167;48.768;14.984;2024-01-16T09:36:04;0.60;69.20
29093;DHT22;16167;48.768;14.984;2024-01-16T09:38:34;0.70;67.70
29093;DHT22;16167;48.768;14.984;2024-01-16T09:41:03;0.80;65.20
29093;DHT22;16167;48.768;14.984;2024-01-16T09:43:32;1.00;66.40
29093;DHT22;16167;48.768;14.984;2024-01-16T09:46:01;1.10;66.60
29093;DHT22;16167;48.768;14.984;2024-01-16T09:48:32;1.10;67.20
29093;DHT22;16167;48.768;14.984;2024-01-16T09:51:01;1.00;66.60
29093;DHT22;16167;48.768;14.984;2024-01-16T09:53:30;1.30;67.90
29093;DHT22;16167;48.768;14.984;2024-01-16T09:56:02;1.30;67.00
29093;DHT22;16167;48.768;14.984;2024-01-16T09:58:34;1.20;68.10
29093;DHT22;16167;48.768;14.984;2024-01-16T10:01:05;1.40;65.90
29093;DHT22;16167;48.768;14.984;2024-01-16T10:03:34;1.40;66.80
29093;DHT22;16167;48.768;14.984;2024-01-16T10:06:05;1.60;66.70
29093;DHT22;16167;48.768;14.984;2024-01-16T10:08:34;1.70;66.80
29093;DHT22;16167;48.768;14.984;2024-01-16T10:11:04;1.80;63.60
29093;DHT22;16167;48.768;14.984;2024-01-16T10:13:33;1.90;62.10
29093;DHT22;16167;48.768;14.984;2024-01-16T10:16:02;2.00;61.00
29093;DHT22;16167;48.768;14.984;2024-01-16T10:18:31;1.70;61.50
29093;DHT22;16167;48.768;14.984;2024-01-16T10:21:01;1.80;63.20
29093;DHT22;16167;48.768;14.984;2024-01-16T10:23:30;1.70;61.20
29093;DHT22;16167;48.768;14.984;2024-01-16T10:26:08;1.30;61.70
29093;DHT22;16167;48.768;14.984;2024-01-16T10:28:38;1.40;63.40
29093;DHT22;16167;48.768;14.984;2024-01-16T10:40:38;1.60;63.50
29093;DHT22;16167;48.768;14.984;2024-01-16T10:43:07;1.80;62.20
29093;DHT22;16167;48.768;14.984;2024-01-16T10:45:36;1.90;60.50
29093;DHT22;16167;48.768;14.984;2024-01-16T10:48:06;2.40;60.90
29093;DHT22;16167;48.768;14.984;2024-01-16T10:50:37;3.00;57.70
29093;DHT22;16167;48.768;14.984;2024-01-16T10:53:17;2.70;55.40
29093;DHT22;16167;48.768;14.984;2024-01-16T10:55:50;3.50;56.00
29093;DHT22;16167;48.768;14.984;2024-01-16T10:58:23;4.40;52.80
29093;DHT22;16167;48.768;14.984;2024-01-16T11:00:53;4.50;50.00
29093;DHT22;16167;48.768;14.984;2024-01-16T11:03:28;4.90;48.80
29093;DHT22;16167;48.768;14.984;2024-01-16T11:05:59;4.70;48.40
29093;DHT22;16167;48.768;14.984;2024-01-16T11:08:46;4.50;48.40
29093;DHT22;16167;48.768;14.984;2024-01-16T11:11:15;4.10;50.30
29093;DHT22;16167;48.768;14.984;2024-01-16T11:13:46;3.60;50.50
29093;DHT22;16167;48.768;14.984;2024-01-16T11:16:14;3.40;52.30
29093;DHT22;16167;48.768;14.984;2024-01-16T11:18:43;3.20;51.50
29093;DHT22;16167;48.768;14.984;2024-01-16T11:21:21;3.40;51.70
29093;DHT22;16167;48.768;14.984;2024-01-16T11:23:50;3.60;50.10
29093;DHT22;16167;48.768;14.984;2024-01-16T11:26:26;3.60;51.00
29093;DHT22;16167;48.768;14.984;2024-01-16T11:28:56;3.10;51.70
29093;DHT22;16167;48.768;14.984;2024-01-16T11:31:44;2.80;52.50
29093;DHT22;16167;48.768;14.984;2024-01-16T11:34:13;3.30;53.20
29093;DHT22;16167;48.768;14.984;2024-01-16T11:36:51;3.30;51.20
29093;DHT22;16167;48.768;14.984;2024-01-16T11:39:22;3.30;51.20
29093;DHT22;16167;48.768;14.984;2024-01-16T11:41:53;3.40;50.50
29093;DHT22;16167;48.768;14.984;2024-01-16T11:44:43;3.60;50.50
29093;DHT22;16167;48.768;14.984;2024-01-16T11:47:18;4.10;49.20
29093;DHT22;16167;48.768;14.984;2024-01-16T11:49:48;4.10;50.20
29093;DHT22;16167;48.768;14.984;2024-01-16T11:52:39;3.90;50.10
29093;DHT22;16167;48.768;14.984;2024-01-16T11:55:25;3.40;50.70
29093;DHT22;16167;48.768;14.984;2024-01-16T11:58:21;3.20;51.30
29093;DHT22;16167;48.768;14.984;2024-01-16T12:00:56;3.00;51.70
29093;DHT22;16167;48.768;14.984;2024-01-16T12:03:33;2.80;51.70
29093;DHT22;16167;48.768;14.984;2024-01-16T12:06:02;2.80;52.40
29093;DHT22;16167;48.768;14.984;2024-01-16T12:08:34;2.60;52.20
29093;DHT22;16167;48.768;14.984;2024-01-16T12:11:04;2.60;53.50
29093;DHT22;16167;48.768;14.984;2024-01-16T12:14:03;2.60;54.30
29093;DHT22;16167;48.768;14.984;2024-01-16T12:16:33;2.40;53.80
29093;DHT22;16167;48.768;14.984;2024-01-16T12:19:05;2.30;54.00
29093;DHT22;16167;48.768;14.984;2024-01-16T12:21:38;2.50;54.50
29093;DHT22;16167;48.768;14.984;2024-01-16T12:24:07;2.60;53.80
29093;DHT22;16167;48.768;14.984;2024-01-16T12:26:40;3.30;52.40
29093;DHT22;16167;48.768;14.984;2024-01-16T12:29:09;4.40;49.10
29093;DHT22;16167;48.768;14.984;2024-01-16T12:31:40;5.30;49.00
29093;DHT22;16167;48.768;14.984;2024-01-16T12:34:22;6.20;45.80
29093;DHT22;16167;48.768;14.984;2024-01-16T12:37:04;6.00;43.80
29093;DHT22;16167;48.768;14.984;2024-01-16T12:39:41;5.30;43.70
29093;DHT22;16167;48.768;14.984;2024-01-16T12:42:12;4.90;45.50
29093;DHT22;16167;48.768;14.984;2024-01-16T12:44:40;4.50;46.00
29093;DHT22;16167;48.768;14.984;2024-01-16T12:47:11;4.00;45.70
29093;DHT22;16167;48.768;14.984;2024-01-16T12:49:43;3.70;48.30
29093;DHT22;16167;48.768;14.984;2024-01-16T12:52:19;3.30;48.40
29093;DHT22;16167;48.768;14.984;2024-01-16T12:55:05;3.10;49.50
29093;DHT22;16167;48.768;14.984;2024-01-16T12:57:35;2.90;50.80
29093;DHT22;16167;48.768;14.984;2024-01-16T13:00:22;3.00;51.90
29093;DHT22;16167;48.768;14.984;2024-01-16T13:02:52;2.70;50.30
29093;DHT22;16167;48.768;14.984;2024-01-16T13:05:25;2.70;51.00
29093;DHT22;16167;48.768;14.984;2024-01-16T13:08:00;2.70;52.40
29093;DHT22;16167;48.768;14.984;2024-01-16T13:10:30;2.80;51.10
29093;DHT22;16167;48.768;14.984;2024-01-16T13:13:12;2.60;51.10
29093;DHT22;16167;48.768;14.984;2024-01-16T13:15:41;2.60;52.40
29093;DHT22;16167;48.768;14.984;2024-01-16T13:18:21;2.50;53.80
29093;DHT22;16167;48.768;14.984;2024-01-16T13:20:50;2.30;54.00
29093;DHT22;16167;48.768;14.984;2024-01-16T13:23:33;2.30;54.90
29093;DHT22;16167;48.768;14.984;2024-01-16T13:26:10;2.10;54.90
29093;DHT22;16167;48.768;14.984;2024-01-16T13:28:55;2.00;56.20
29093;DHT22;16167;48.768;14.984;2024-01-16T13:31:24;1.90;56.20
29093;DHT22;16167;48.768;14.984;2024-01-16T13:33:53;1.90;57.20
29093;DHT22;16167;48.768;14.984;2024-01-16T13:36:31;1.60;56.20
29093;DHT22;16167;48.768;14.984;2024-01-16T13:39:06;1.50;57.60
29093;DHT22;16167;48.768;14.984;2024-01-16T13:41:43;1.40;57.90
29093;DHT22;16167;48.768;14.984;2024-01-16T13:44:22;1.60;58.20
29093;DHT22;16167;48.768;14.984;2024-01-16T13:46:51;1.50;58.60
29093;DHT22;16167;48.768;14.984;2024-01-16T13:49:41;1.30;58.50
29093;DHT22;16167;48.768;14.984;2024-01-16T13:52:17;1.20;60.10
29093;DHT22;16167;48.768;14.984;2024-01-16T13:54:50;1.20;61.00
29093;DHT22;16167;48.768;14.984;2024-01-16T13:57:19;1.10;61.40
29093;DHT22;16167;48.768;14.984;2024-01-16T13:59:47;1.10;61.20
29093;DHT22;16167;48.768;14.984;2024-01-16T14:02:17;1.10;62.00
29093;DHT22;16167;48.768;14.984;2024-01-16T14:04:49;1.00;62.00
29093;DHT22;16167;48.768;14.984;2024-01-16T14:07:18;1.00;61.90
29093;DHT22;16167;48.768;14.984;2024-01-16T14:09:49;1.00;62.00
29093;DHT22;16167;48.768;14.984;2024-01-16T14:12:17;0.90;62.60
29093;DHT22;16167;48.768;14.984;2024-01-16T14:14:46;0.80;62.90
29093;DHT22;16167;48.768;14.984;2024-01-16T14:17:15;0.80;63.60
29093;DHT22;16167;48.768;14.984;2024-01-16T14:19:43;0.70;64.30
29093;DHT22;16167;48.768;14.984;2024-01-16T14:22:13;0.60;64.20
29093;DHT22;16167;48.768;14.984;2024-01-16T14:24:41;0.50;64.30
29093;DHT22;16167;48.768;14.984;2024-01-16T14:27:10;0.40;64.20
29093;DHT22;16167;48.768;14.984;2024-01-16T14:29:38;0.30;63.90
29093;DHT22;16167;48.768;14.984;2024-01-16T14:32:07;0.30;64.90
29093;DHT22;16167;48.768;14.984;2024-01-16T14:34:37;0.20;65.30
29093;DHT22;16167;48.768;14.984;2024-01-16T14:37:05;0.20;66.50
29093;DHT22;16167;48.768;14.984;2024-01-16T14:39:35;0.10;67.70
29093;DHT22;16167;48.768;14.984;2024-01-16T14:42:04;0.10;66.10
29093;DHT22;16167;48.768;14.984;2024-01-16T14:44:33;0.10;68.70
29093;DHT22;16167;48.768;14.984;2024-01-16T14:47:02;0.00;69.00
29093;DHT22;16167;48.768;14.984;2024-01-16T14:49:31;-0.10;68.80
29093;DHT22;16167;48.768;14.984;2024-01-16T14:52:01;-0.10;69.00
29093;DHT22;16167;48.768;14.984;2024-01-16T14:54:30;-0.10;69.70
29093;DHT22;16167;48.768;14.984;2024-01-16T14:56:59;-0.20;69.80
29093;DHT22;16167;48.768;14.984;2024-01-16T14:59:27;-0.30;69.80
29093;DHT22;16167;48.768;14.984;2024-01-16T15:01:56;-0.20;70.70
29093;DHT22;16167;48.768;14.984;2024-01-16T15:04:24;-0.30;69.10
29093;DHT22;16167;48.768;14.984;2024-01-16T15:06:52;-0.30;70.30
29093;DHT22;16167;48.768;14.984;2024-01-16T15:09:23;-0.30;70.70
29093;DHT22;16167;48.768;14.984;2024-01-16T15:11:51;-0.40;70.70
29093;DHT22;16167;48.768;14.984;2024-01-16T15:14:21;-0.40;70.90
29093;DHT22;16167;48.768;14.984;2024-01-16T15:16:49;-0.40;72.10
29093;DHT22;16167;48.768;14.984;2024-01-16T15:19:18;-0.50;73.10
29093;DHT22;16167;48.768;14.984;2024-01-16T15:21:47;-0.60;73.30
29093;DHT22;16167;48.768;14.984;2024-01-16T15:24:15;-0.60;73.20
29093;DHT22;16167;48.768;14.984;2024-01-16T15:26:48;-0.60;74.70
29093;DHT22;16167;48.768;14.984;2024-01-16T15:29:17;-0.70;74.30
29093;DHT22;16167;48.768;14.984;2024-01-16T15:31:47;-0.70;73.50
29093;DHT22;16167;48.768;14.984;2024-01-16T15:34:15;-0.70;74.90
29093;DHT22;16167;48.768;14.984;2024-01-16T15:36:44;-0.80;75.90
29093;DHT22;16167;48.768;14.984;2024-01-16T15:39:12;-0.80;77.00
29093;DHT22;16167;48.768;14.984;2024-01-16T15:41:43;-0.90;76.70
29093;DHT22;16167;48.768;14.984;2024-01-16T15:44:12;-0.90;76.80
29093;DHT22;16167;48.768;14.984;2024-01-16T15:47:01;-0.90;77.20
29093;DHT22;16167;48.768;14.984;2024-01-16T15:49:30;-1.00;78.10
29093;DHT22;16167;48.768;14.984;2024-01-16T15:51:59;-1.00;78.30
29093;DHT22;16167;48.768;14.984;2024-01-16T15:54:28;-1.10;79.00